Time;durP1;ratioP1;P1;durP2;ratioP2;P2;SDS_P1;SDS_P2;PMS_P1;PMS_P2;Temp;Humidity;BMP_temperature;BMP_pressure;BME280_temperature;BME280_humidity;BME280_pressure;Samples;Min_cycle;Max_cycle;Signal;HPM_P1;HPM_P2
2022/11/20 00:01:06;;;;;;;5.07;3.67;;;1.50;99.90;;;;;;4921777;28;20232;-78
2022/11/20 00:03:33;;;;;;;4.57;3.70;;;1.50;99.90;;;;;;4919017;28;20312;-78
2022/11/20 00:06:01;;;;;;;4.60;3.53;;;1.40;99.90;;;;;;4910115;28;20323;-78
2022/11/20 00:08:28;;;;;;;5.27;3.60;;;1.50;99.90;;;;;;4924144;28;20650;-77
2022/11/20 00:10:56;;;;;;;4.13;3.40;;;1.50;99.90;;;;;;4903093;28;20786;-76
2022/11/20 00:13:23;;;;;;;4.70;3.47;;;1.50;99.90;;;;;;4903950;28;20822;-78
2022/11/20 00:15:57;;;;;;;3.77;3.13;;;1.50;99.90;;;;;;4908374;28;20232;-77
2022/11/20 00:18:24;;;;;;;4.07;3.20;;;1.50;99.90;;;;;;4903700;28;20234;-78
2022/11/20 00:20:50;;;;;;;4.27;3.10;;;1.50;99.90;;;;;;4909628;28;20294;-77
2022/11/20 00:23:17;;;;;;;5.03;3.40;;;1.50;99.90;;;;;;4906626;28;20236;-77
2022/11/20 00:25:44;;;;;;;4.93;3.00;;;1.50;99.90;;;;;;4905560;28;20236;-78
2022/11/20 00:28:12;;;;;;;5.17;3.40;;;1.50;99.90;;;;;;4905789;28;20700;-78
2022/11/20 00:30:38;;;;;;;6.17;3.90;;;1.50;99.90;;;;;;4907253;28;20225;-78
2022/11/20 00:33:05;;;;;;;5.93;3.27;;;1.50;99.90;;;;;;4903442;28;20328;-77
2022/11/20 00:35:32;;;;;;;5.17;3.37;;;1.50;99.90;;;;;;4905860;28;20258;-78
2022/11/20 00:37:58;;;;;;;4.20;3.40;;;1.50;99.90;;;;;;4906818;28;20724;-78
2022/11/20 00:40:25;;;;;;;4.03;3.00;;;1.50;99.90;;;;;;4904482;28;20232;-76
2022/11/20 00:42:52;;;;;;;9.40;3.47;;;1.50;99.90;;;;;;4903218;28;20241;-76
2022/11/20 00:45:20;;;;;;;5.53;3.47;;;1.50;99.90;;;;;;4920904;28;20228;-78
2022/11/20 00:47:46;;;;;;;5.87;3.50;;;1.50;99.90;;;;;;4907754;28;20268;-79
2022/11/20 00:50:13;;;;;;;5.53;3.23;;;1.50;99.90;;;;;;4907564;28;20228;-77
2022/11/20 00:52:40;;;;;;;5.47;3.13;;;1.50;99.90;;;;;;4909109;28;20752;-78
2022/11/20 00:55:07;;;;;;;3.67;3.13;;;1.50;99.90;;;;;;4907958;28;20231;-76
2022/11/20 00:57:34;;;;;;;5.50;3.57;;;1.50;99.90;;;;;;4922179;28;20314;-78
2022/11/20 01:00:01;;;;;;;4.37;3.20;;;1.50;99.90;;;;;;4909295;28;20240;-77
2022/11/20 01:02:29;;;;;;;4.70;3.37;;;1.50;99.90;;;;;;4907116;28;20235;-77
2022/11/20 01:04:55;;;;;;;5.27;3.40;;;1.50;99.90;;;;;;4905413;28;20317;-78
2022/11/20 01:07:22;;;;;;;9.73;6.20;;;1.50;99.90;;;;;;4906358;28;20242;-76
2022/11/20 01:09:49;;;;;;;6.33;3.63;;;1.50;99.90;;;;;;4908891;28;20217;-78
2022/11/20 01:12:15;;;;;;;5.13;3.20;;;1.50;99.90;;;;;;4984994;28;20244;-78
2022/11/20 01:14:42;;;;;;;5.30;3.43;;;1.40;99.90;;;;;;4911372;28;20244;-77
2022/11/20 01:17:09;;;;;;;5.80;3.40;;;1.50;99.90;;;;;;4906141;28;20271;-78
2022/11/20 01:19:39;;;;;;;4.67;3.50;;;1.40;99.90;;;;;;4908653;28;20239;-78
2022/11/20 01:22:06;;;;;;;4.83;3.33;;;1.40;99.90;;;;;;4908989;28;20740;-76
2022/11/20 01:24:32;;;;;;;5.47;3.27;;;1.40;99.90;;;;;;4905698;28;20231;-79
2022/11/20 01:26:59;;;;;;;5.87;3.40;;;1.40;99.90;;;;;;4919103;28;20235;-78
2022/11/20 01:29:26;;;;;;;4.23;3.23;;;1.40;99.90;;;;;;4905114;28;20941;-79
2022/11/20 01:31:53;;;;;;;5.57;3.40;;;1.40;99.90;;;;;;4908357;28;20266;-78
2022/11/20 01:34:21;;;;;;;4.90;3.50;;;1.40;99.90;;;;;;4904426;28;20233;-77
2022/11/20 01:36:50;;;;;;;4.73;3.60;;;1.40;99.90;;;;;;4921429;28;20631;-79
2022/11/20 01:39:19;;;;;;;5.60;3.50;;;1.40;99.90;;;;;;4920371;28;20740;-78
2022/11/20 01:44:49;;;;;;;4.43;3.57;;;1.40;99.90;;;;;;4967376;28;20238;-78
2022/11/20 01:47:21;;;;;;;5.93;3.37;;;1.40;99.90;;;;;;4916179;28;20240;-78
2022/11/20 01:49:51;;;;;;;5.10;3.47;;;1.40;99.90;;;;;;4907867;28;20224;-76
2022/11/20 01:52:23;;;;;;;5.80;3.33;;;1.40;99.90;;;;;;4900877;28;20263;-78
2022/11/20 01:54:56;;;;;;;5.40;3.20;;;1.40;99.90;;;;;;4909182;28;20229;-77
2022/11/20 01:57:26;;;;;;;4.23;3.30;;;1.40;99.90;;;;;;4921346;28;20237;-78
2022/11/20 01:59:57;;;;;;;4.83;3.50;;;1.40;99.90;;;;;;4911807;28;20247;-76
2022/11/20 02:02:24;;;;;;;5.40;3.73;;;1.40;99.90;;;;;;4917989;28;20237;-78
2022/11/20 02:04:54;;;;;;;4.27;3.03;;;1.40;99.90;;;;;;4983224;28;20231;-78
2022/11/20 02:07:24;;;;;;;4.33;3.53;;;1.40;99.90;;;;;;4922360;28;20351;-77
2022/11/20 02:09:52;;;;;;;6.73;3.77;;;1.40;99.90;;;;;;4904359;28;20260;-77
2022/11/20 02:15:00;;;;;;;4.67;3.40;;;1.40;99.90;;;;;;4911971;28;20235;-77
2022/11/20 02:17:26;;;;;;;5.77;3.80;;;1.40;99.90;;;;;;4911633;28;20242;-78
2022/11/20 02:19:54;;;;;;;9.37;4.20;;;1.40;99.90;;;;;;4926447;28;22150;-76
2022/11/20 02:22:28;;;;;;;5.40;3.70;;;1.40;99.90;;;;;;4985580;28;20229;-78
2022/11/20 02:24:57;;;;;;;7.80;4.40;;;1.40;99.90;;;;;;4906250;28;20248;-77
2022/11/20 02:27:24;;;;;;;6.27;3.73;;;1.40;99.90;;;;;;4918593;28;20738;-78
2022/11/20 02:29:53;;;;;;;6.50;3.87;;;1.40;99.90;;;;;;4906325;28;20352;-76
2022/11/20 02:32:21;;;;;;;6.60;4.00;;;1.40;99.90;;;;;;4915924;28;20233;-78
2022/11/20 02:34:48;;;;;;;5.53;4.10;;;1.40;99.90;;;;;;4903135;28;20392;-78
2022/11/20 02:37:15;;;;;;;5.00;4.30;;;1.30;99.90;;;;;;4905038;28;20230;-77
2022/11/20 02:39:43;;;;;;;6.83;4.10;;;1.30;99.90;;;;;;4905456;28;20236;-77
2022/11/20 02:42:11;;;;;;;6.37;4.33;;;1.30;99.90;;;;;;4911814;28;20225;-78
2022/11/20 02:44:38;;;;;;;8.73;4.13;;;1.30;99.90;;;;;;4905054;28;20229;-77
2022/11/20 02:47:04;;;;;;;6.60;4.30;;;1.30;99.90;;;;;;4904723;28;20232;-77
2022/11/20 02:49:31;;;;;;;5.27;4.10;;;1.30;99.90;;;;;;4901810;28;20225;-77
2022/11/20 02:51:58;;;;;;;4.80;3.80;;;1.30;99.90;;;;;;4899680;28;20545;-76
2022/11/20 02:54:25;;;;;;;6.57;4.13;;;1.30;99.90;;;;;;4901576;28;20662;-77
2022/11/20 02:56:52;;;;;;;6.13;4.00;;;1.30;99.90;;;;;;4899123;28;20233;-76
2022/11/20 02:59:20;;;;;;;8.87;3.97;;;1.20;99.90;;;;;;4899476;28;20234;-76
2022/11/20 03:01:47;;;;;;;5.70;3.80;;;1.20;99.90;;;;;;4905709;28;20221;-77
2022/11/20 03:04:13;;;;;;;5.40;3.90;;;1.20;99.90;;;;;;4899113;28;20234;-78
2022/11/20 03:06:40;;;;;;;5.33;3.67;;;1.20;99.90;;;;;;4918732;28;20883;-78
2022/11/20 03:09:07;;;;;;;8.17;4.83;;;1.20;99.90;;;;;;4911543;28;20220;-76
2022/11/20 03:11:34;;;;;;;6.73;4.07;;;1.20;99.90;;;;;;4918722;28;20391;-77
2022/11/20 03:14:03;;;;;;;5.10;4.00;;;1.10;99.90;;;;;;4901241;28;20319;-76
2022/11/20 03:16:32;;;;;;;7.27;4.07;;;1.20;99.90;;;;;;4940174;28;21000;-78
2022/11/20 03:18:59;;;;;;;5.17;3.80;;;1.20;99.90;;;;;;4912859;28;20671;-77
2022/11/20 03:21:25;;;;;;;5.40;3.57;;;1.10;99.90;;;;;;4915372;28;20235;-76
2022/11/20 03:23:53;;;;;;;7.90;4.43;;;1.10;99.90;;;;;;4917789;28;20239;-77
2022/11/20 03:26:22;;;;;;;5.57;3.53;;;1.10;99.90;;;;;;4901549;28;21815;-77
2022/11/20 03:28:50;;;;;;;5.73;3.90;;;1.20;99.90;;;;;;4901501;28;20705;-76
2022/11/20 03:31:19;;;;;;;5.20;3.77;;;1.10;99.90;;;;;;4911666;28;20233;-77
2022/11/20 03:33:47;;;;;;;5.53;3.37;;;1.10;99.90;;;;;;4902530;28;20239;-77
2022/11/20 03:36:16;;;;;;;7.27;3.87;;;1.20;99.90;;;;;;4915575;28;20747;-77
2022/11/20 03:38:43;;;;;;;5.53;3.80;;;1.20;99.90;;;;;;4914775;28;20232;-78
2022/11/20 03:41:12;;;;;;;5.47;3.37;;;1.10;99.90;;;;;;4912801;28;20285;-77
2022/11/20 03:43:39;;;;;;;5.47;3.83;;;1.10;99.90;;;;;;4904737;28;20237;-76
2022/11/20 03:46:06;;;;;;;4.87;3.30;;;1.10;99.90;;;;;;4903832;28;20331;-77
2022/11/20 03:48:33;;;;;;;5.23;3.40;;;1.20;99.90;;;;;;4901613;28;20228;-77
2022/11/20 03:51:14;;;;;;;9.10;4.00;;;1.10;99.90;;;;;;4900861;28;20229;-76
2022/11/20 03:53:42;;;;;;;6.40;3.30;;;1.10;99.90;;;;;;4915800;28;20240;-78
2022/11/20 03:56:10;;;;;;;5.60;3.53;;;1.10;99.90;;;;;;4903983;28;20250;-77
2022/11/20 03:58:39;;;;;;;4.53;3.70;;;1.10;99.90;;;;;;4902532;28;20238;-77
2022/11/20 04:01:07;;;;;;;4.67;3.57;;;1.10;99.90;;;;;;4900654;28;20221;-77
2022/11/20 04:03:34;;;;;;;6.43;4.07;;;1.10;99.90;;;;;;4903355;28;20247;-79
2022/11/20 04:06:08;;;;;;;5.57;3.93;;;1.10;99.90;;;;;;4903589;28;20267;-82
2022/11/20 04:08:36;;;;;;;6.40;3.93;;;1.20;99.90;;;;;;4938676;28;20242;-80
2022/11/20 04:11:14;;;;;;;6.53;4.30;;;1.20;99.90;;;;;;4900005;28;20228;-83
2022/11/20 04:13:41;;;;;;;5.50;3.93;;;1.20;99.90;;;;;;4916997;28;20235;-81
2022/11/20 04:16:09;;;;;;;7.73;3.63;;;1.20;99.90;;;;;;4917693;28;20217;-80
2022/11/20 04:18:36;;;;;;;5.37;4.07;;;1.10;99.90;;;;;;4901122;28;20242;-81
2022/11/20 04:21:04;;;;;;;6.40;3.63;;;1.20;99.90;;;;;;4902909;28;20242;-81
2022/11/20 04:23:32;;;;;;;5.50;3.63;;;1.20;99.90;;;;;;4936416;28;20240;-79
2022/11/20 04:26:04;;;;;;;6.77;5.13;;;1.20;99.90;;;;;;4900630;28;20216;-84
2022/11/20 04:28:31;;;;;;;4.63;3.77;;;1.20;99.90;;;;;;4898469;28;20229;-81
2022/11/20 04:31:04;;;;;;;6.10;3.90;;;1.20;99.90;;;;;;4902141;28;20319;-78
2022/11/20 04:33:30;;;;;;;6.03;3.93;;;1.20;99.90;;;;;;4913494;28;20236;-80
2022/11/20 04:36:01;;;;;;;4.93;3.63;;;1.20;99.90;;;;;;4899233;28;20232;-80
2022/11/20 04:38:28;;;;;;;5.70;3.73;;;1.20;99.90;;;;;;4899746;28;20237;-79
2022/11/20 04:40:58;;;;;;;4.87;3.50;;;1.20;99.90;;;;;;4901088;28;20237;-79
2022/11/20 04:43:26;;;;;;;5.30;4.10;;;1.20;99.90;;;;;;4895159;28;20282;-82
2022/11/20 04:45:53;;;;;;;5.93;3.60;;;1.20;99.90;;;;;;4899578;28;20766;-79
2022/11/20 04:48:20;;;;;;;5.13;3.90;;;1.20;99.90;;;;;;4899226;28;20237;-80
2022/11/20 04:50:47;;;;;;;7.20;4.50;;;1.30;99.90;;;;;;4906169;28;20639;-82
2022/11/20 04:53:13;;;;;;;5.47;3.77;;;1.20;99.90;;;;;;4982616;28;20264;-83
2022/11/20 04:55:40;;;;;;;4.23;3.27;;;1.20;99.90;;;;;;4905805;28;20228;-84
2022/11/20 04:58:07;;;;;;;5.87;4.00;;;1.20;99.90;;;;;;4903858;28;20329;-78
2022/11/20 05:00:35;;;;;;;5.43;3.20;;;1.20;99.90;;;;;;4902560;28;20232;-79
2022/11/20 05:03:04;;;;;;;3.87;3.37;;;1.10;99.90;;;;;;4905190;28;20232;-79
2022/11/20 05:05:31;;;;;;;5.87;3.50;;;1.10;99.90;;;;;;4902948;28;20260;-79
2022/11/20 05:07:58;;;;;;;5.17;3.50;;;1.10;99.90;;;;;;4902408;28;20224;-78
2022/11/20 05:10:24;;;;;;;6.20;3.17;;;1.10;99.90;;;;;;4904250;28;20246;-79
2022/11/20 05:12:51;;;;;;;5.77;3.30;;;1.10;99.90;;;;;;4902777;28;20603;-82
2022/11/20 05:15:18;;;;;;;5.00;3.60;;;1.10;99.90;;;;;;4915309;28;20332;-82
2022/11/20 05:17:49;;;;;;;6.37;3.70;;;1.10;99.90;;;;;;4904108;28;20277;-79
2022/11/20 05:20:16;;;;;;;4.13;3.57;;;1.00;99.90;;;;;;4914811;28;20245;-80
2022/11/20 05:22:43;;;;;;;6.57;3.57;;;1.00;99.90;;;;;;4914782;28;20300;-80
2022/11/20 05:25:10;;;;;;;9.13;3.33;;;1.00;99.90;;;;;;4901424;28;20311;-79
2022/11/20 05:27:37;;;;;;;4.13;3.53;;;1.00;99.90;;;;;;4905101;28;20850;-79
2022/11/20 05:30:04;;;;;;;6.27;3.73;;;1.00;99.90;;;;;;4901929;28;20231;-79
2022/11/20 05:32:30;;;;;;;5.37;4.07;;;1.00;99.90;;;;;;4941836;28;20237;-78
2022/11/20 05:34:58;;;;;;;4.67;3.47;;;1.00;99.90;;;;;;4900170;28;20232;-80
2022/11/20 05:37:25;;;;;;;5.73;3.70;;;1.00;99.90;;;;;;4903914;28;20234;-80
2022/11/20 05:39:52;;;;;;;3.87;3.40;;;1.00;99.90;;;;;;4907012;28;20228;-80
2022/11/20 05:42:30;;;;;;;4.90;3.37;;;1.00;99.90;;;;;;4906708;28;20239;-80
2022/11/20 05:44:57;;;;;;;6.30;3.57;;;1.00;99.90;;;;;;4907165;28;20236;-80
2022/11/20 05:47:24;;;;;;;6.97;4.27;;;1.00;99.90;;;;;;4904163;28;20319;-80
2022/11/20 05:49:51;;;;;;;6.03;3.63;;;1.00;99.90;;;;;;4907925;28;20222;-79
2022/11/20 05:52:19;;;;;;;4.50;3.53;;;1.00;99.90;;;;;;4902798;28;20224;-79
2022/11/20 05:54:45;;;;;;;6.07;4.10;;;1.00;99.90;;;;;;4911279;28;20307;-79
2022/11/20 05:57:12;;;;;;;4.67;3.67;;;1.00;99.90;;;;;;4906623;28;20235;-80
2022/11/20 05:59:39;;;;;;;4.37;3.50;;;1.00;99.90;;;;;;4908988;28;20230;-80
2022/11/20 06:02:05;;;;;;;5.77;3.87;;;1.00;99.90;;;;;;4905495;28;20241;-80
2022/11/20 06:04:32;;;;;;;6.03;3.87;;;1.00;99.90;;;;;;4902856;28;20722;-82
2022/11/20 06:06:59;;;;;;;5.80;4.00;;;0.90;99.90;;;;;;4915410;28;20235;-79
2022/11/20 06:09:27;;;;;;;5.70;3.90;;;0.90;99.90;;;;;;4908553;28;20233;-80
2022/11/20 06:11:53;;;;;;;4.90;3.87;;;0.90;99.90;;;;;;4909780;28;20228;-81
2022/11/20 06:14:20;;;;;;;6.23;4.00;;;0.90;99.90;;;;;;4904552;28;20244;-79
2022/11/20 06:16:47;;;;;;;5.37;3.43;;;0.90;99.90;;;;;;4922994;28;20238;-80
2022/11/20 06:19:14;;;;;;;6.37;4.10;;;0.90;99.90;;;;;;4904351;28;20229;-80
2022/11/20 06:21:41;;;;;;;5.80;3.70;;;0.90;99.90;;;;;;4916603;28;20251;-79
2022/11/20 06:24:10;;;;;;;5.30;3.87;;;0.90;99.90;;;;;;4900339;28;20312;-81
2022/11/20 06:26:38;;;;;;;5.27;4.03;;;0.90;99.90;;;;;;4918574;28;20311;-83
2022/11/20 06:29:05;;;;;;;5.40;4.23;;;0.90;99.90;;;;;;4902870;28;20321;-81
2022/11/20 06:31:34;;;;;;;6.93;4.57;;;0.90;99.90;;;;;;4903962;28;20230;-82
2022/11/20 06:34:02;;;;;;;5.63;4.10;;;1.00;99.90;;;;;;4908967;28;20232;-81
2022/11/20 06:36:28;;;;;;;7.03;4.30;;;0.90;99.90;;;;;;4898007;28;20266;-81
2022/11/20 06:38:55;;;;;;;6.33;4.50;;;0.90;99.90;;;;;;4902540;28;20258;-81
2022/11/20 06:41:23;;;;;;;5.27;4.23;;;0.90;99.90;;;;;;4906641;28;20234;-81
2022/11/20 06:43:51;;;;;;;6.97;4.80;;;0.90;99.90;;;;;;4904287;28;21430;-81
2022/11/20 06:46:20;;;;;;;8.30;4.90;;;0.90;99.90;;;;;;4903973;28;20237;-81
2022/11/20 06:48:47;;;;;;;5.80;4.80;;;0.90;99.90;;;;;;4906133;28;20313;-81
2022/11/20 06:51:15;;;;;;;6.37;5.30;;;0.90;99.90;;;;;;4933117;28;20217;-82
2022/11/20 06:53:42;;;;;;;8.17;4.80;;;0.90;99.90;;;;;;4920663;28;20243;-81
2022/11/20 06:56:11;;;;;;;6.20;4.83;;;0.90;99.90;;;;;;4904360;28;20228;-82
2022/11/20 06:58:38;;;;;;;6.27;4.80;;;0.90;99.90;;;;;;4919447;28;20220;-80
2022/11/20 07:01:08;;;;;;;7.40;4.70;;;0.80;99.90;;;;;;4911586;28;20241;-82
2022/11/20 07:03:35;;;;;;;6.00;4.73;;;0.80;99.90;;;;;;4893396;28;20333;-85
2022/11/20 07:06:02;;;;;;;6.83;4.63;;;0.80;99.90;;;;;;4910775;28;20297;-83
2022/11/20 07:08:30;;;;;;;6.17;4.47;;;0.80;99.90;;;;;;4900676;28;20894;-84
2022/11/20 07:11:02;;;;;;;7.47;5.00;;;0.80;99.90;;;;;;4901098;28;20221;-83
2022/11/20 07:13:29;;;;;;;8.10;6.03;;;0.70;99.90;;;;;;4986171;28;20324;-83
2022/11/20 07:16:00;;;;;;;9.77;5.00;;;0.70;99.90;;;;;;4902967;28;20266;-85
2022/11/20 07:18:28;;;;;;;6.00;4.90;;;0.70;99.90;;;;;;4899812;28;20251;-83
2022/11/20 07:20:55;;;;;;;6.43;4.87;;;0.70;99.90;;;;;;4919778;28;20268;-84
2022/11/20 07:23:22;;;;;;;7.30;5.10;;;0.80;99.90;;;;;;4905783;28;20243;-86
2022/11/20 07:25:48;;;;;;;8.60;4.53;;;0.80;99.90;;;;;;4930239;28;20225;-82
2022/11/20 07:28:15;;;;;;;6.40;4.60;;;0.80;99.90;;;;;;4937123;28;20232;-83
2022/11/20 07:30:42;;;;;;;7.43;4.43;;;0.80;99.90;;;;;;5001244;28;20224;-83
2022/11/20 07:33:08;;;;;;;6.90;4.30;;;0.80;99.90;;;;;;4915724;28;20227;-85
2022/11/20 07:35:36;;;;;;;6.47;4.50;;;0.80;99.90;;;;;;4912293;28;20259;-83
2022/11/20 07:38:03;;;;;;;4.87;4.00;;;0.80;99.90;;;;;;4919594;28;20254;-86
2022/11/20 07:40:30;;;;;;;5.30;4.37;;;0.90;99.90;;;;;;4891168;28;20235;-83
2022/11/20 07:42:56;;;;;;;6.43;4.23;;;0.90;99.90;;;;;;4895258;28;20230;-84
2022/11/20 07:45:24;;;;;;;6.50;4.77;;;0.90;99.90;;;;;;4913547;28;20234;-82
2022/11/20 07:47:51;;;;;;;5.23;4.47;;;0.90;99.90;;;;;;4890883;28;20820;-82
2022/11/20 07:50:19;;;;;;;5.83;3.90;;;1.00;99.90;;;;;;4899192;28;20229;-82
2022/11/20 07:52:47;;;;;;;8.37;4.70;;;1.00;99.90;;;;;;4907542;28;20271;-81
2022/11/20 07:55:14;;;;;;;5.27;4.27;;;1.00;99.90;;;;;;4915026;28;20229;-83
2022/11/20 07:57:41;;;;;;;6.93;4.40;;;1.00;99.90;;;;;;4893565;28;20222;-80
2022/11/20 08:00:10;;;;;;;4.43;4.03;;;1.00;99.90;;;;;;4889579;28;20228;-82
2022/11/20 08:02:40;;;;;;;6.23;4.60;;;1.00;99.90;;;;;;4886934;28;20725;-81
2022/11/20 08:05:07;;;;;;;5.43;4.63;;;1.10;99.90;;;;;;4885199;28;20233;-82
2022/11/20 08:07:37;;;;;;;6.07;4.47;;;1.10;99.90;;;;;;4892272;28;20231;-81
2022/11/20 08:10:06;;;;;;;5.20;4.70;;;1.10;99.90;;;;;;4891553;28;20214;-83
2022/11/20 08:15:19;;;;;;;5.93;4.67;;;1.10;99.90;;;;;;4912858;28;20728;-80
2022/11/20 08:17:46;;;;;;;8.03;4.60;;;1.20;99.90;;;;;;4884318;28;20230;-82
2022/11/20 08:20:13;;;;;;;27.03;6.33;;;1.20;99.90;;;;;;4905062;28;20226;-81
2022/11/20 08:22:47;;;;;;;6.10;4.70;;;1.30;99.90;;;;;;4890736;28;20284;-83
2022/11/20 08:25:15;;;;;;;28.10;6.93;;;1.30;99.90;;;;;;4902901;28;20229;-82
2022/11/20 08:27:42;;;;;;;5.83;4.13;;;1.30;99.90;;;;;;4899918;28;20239;-79
2022/11/20 08:30:10;;;;;;;36.37;6.23;;;1.30;99.90;;;;;;4886755;28;20229;-81
2022/11/20 08:32:37;;;;;;;17.40;4.47;;;1.40;99.90;;;;;;4887101;28;20231;-81
2022/11/20 08:35:04;;;;;;;14.37;4.63;;;1.40;99.90;;;;;;4902409;28;20321;-81
2022/11/20 08:37:31;;;;;;;5.83;4.70;;;1.40;99.90;;;;;;4891244;28;20225;-80
2022/11/20 08:39:58;;;;;;;14.87;4.90;;;1.40;99.90;;;;;;4883185;28;20223;-80
2022/11/20 08:42:26;;;;;;;6.70;4.97;;;1.50;99.90;;;;;;4886230;28;20292;-79
2022/11/20 08:44:53;;;;;;;7.37;4.53;;;1.50;99.90;;;;;;4886016;28;20234;-79
2022/11/20 08:47:19;;;;;;;11.93;4.43;;;1.50;99.90;;;;;;4891678;28;20248;-80
2022/11/20 08:49:46;;;;;;;5.57;4.07;;;1.60;99.90;;;;;;4888695;28;20220;-79
2022/11/20 08:52:12;;;;;;;16.43;4.60;;;1.60;99.90;;;;;;4890024;28;20226;-80
2022/11/20 08:54:39;;;;;;;5.23;4.03;;;1.60;99.90;;;;;;4887729;28;20232;-80
2022/11/20 08:57:06;;;;;;;12.60;4.40;;;1.70;99.90;;;;;;4889275;28;20235;-79
2022/11/20 08:59:34;;;;;;;4.83;3.90;;;1.70;99.90;;;;;;4884559;28;20253;-80
2022/11/20 09:02:00;;;;;;;10.67;4.30;;;1.60;99.90;;;;;;4884048;28;20228;-79
2022/11/20 09:04:27;;;;;;;5.70;4.60;;;1.70;99.90;;;;;;4886966;28;20234;-79
2022/11/20 09:06:54;;;;;;;5.33;4.30;;;1.60;99.90;;;;;;4891614;28;20761;-80
2022/11/20 09:09:21;;;;;;;5.90;4.60;;;1.60;99.90;;;;;;4888204;28;20230;-79
2022/11/20 09:11:49;;;;;;;6.87;4.60;;;1.60;99.90;;;;;;4890407;28;20237;-80
2022/11/20 09:14:16;;;;;;;6.33;4.47;;;1.60;99.90;;;;;;4890301;28;20237;-81
2022/11/20 09:16:45;;;;;;;5.37;4.63;;;1.60;99.90;;;;;;4895788;28;20234;-81
2022/11/20 09:19:12;;;;;;;8.13;4.40;;;1.70;99.90;;;;;;4901190;28;20229;-80
2022/11/20 09:21:45;;;;;;;5.47;4.40;;;1.70;99.90;;;;;;4883685;28;20272;-79
2022/11/20 09:24:12;;;;;;;9.40;5.50;;;1.80;99.90;;;;;;4875651;28;20725;-79
2022/11/20 09:26:38;;;;;;;12.07;5.60;;;1.80;99.90;;;;;;4896723;28;20237;-79
2022/11/20 09:29:05;;;;;;;16.43;5.83;;;1.80;99.90;;;;;;4882773;28;20588;-79
2022/11/20 09:31:32;;;;;;;7.10;5.27;;;1.90;99.90;;;;;;4883511;28;20567;-80
2022/11/20 09:34:00;;;;;;;4.77;4.27;;;1.90;99.90;;;;;;4896961;28;20257;-79
2022/11/20 09:36:27;;;;;;;6.13;4.90;;;2.00;99.90;;;;;;4885934;28;20237;-79
2022/11/20 09:38:54;;;;;;;7.40;4.80;;;2.00;99.90;;;;;;4885680;28;20340;-79
2022/11/20 09:41:42;;;;;;;4.97;4.47;;;2.10;99.90;;;;;;4890988;28;20228;-79
2022/11/20 09:44:21;;;;;;;4.87;4.00;;;2.20;99.90;;;;;;4885274;28;20482;-79
2022/11/20 09:46:54;;;;;;;4.33;3.93;;;2.30;99.90;;;;;;4888004;28;20229;-79
2022/11/20 09:49:32;;;;;;;6.57;3.70;;;2.30;99.90;;;;;;4894086;28;20228;-79
2022/11/20 09:52:00;;;;;;;5.07;4.30;;;2.30;99.90;;;;;;4911212;28;20316;-79
2022/11/20 09:54:31;;;;;;;6.23;4.27;;;2.40;99.90;;;;;;4877699;28;20701;-79
2022/11/20 09:57:02;;;;;;;5.00;4.50;;;2.40;99.90;;;;;;4878794;28;20732;-79
2022/11/20 09:59:39;;;;;;;5.37;4.13;;;2.40;99.90;;;;;;4933336;28;20235;-79
2022/11/20 10:02:17;;;;;;;5.10;3.90;;;2.40;99.90;;;;;;4894850;28;20239;-79
2022/11/20 10:04:50;;;;;;;5.60;4.60;;;2.40;99.90;;;;;;4900418;28;20228;-79
2022/11/20 10:07:22;;;;;;;4.93;4.23;;;2.40;99.90;;;;;;4898048;28;20241;-79
2022/11/20 10:09:52;;;;;;;5.27;4.20;;;2.30;99.90;;;;;;4899171;28;20271;-79
2022/11/20 10:12:26;;;;;;;4.80;4.23;;;2.30;99.90;;;;;;4902560;28;20229;-80
2022/11/20 10:15:12;;;;;;;4.60;4.17;;;2.30;99.90;;;;;;4897951;28;20276;-79
2022/11/20 10:17:59;;;;;;;4.80;4.10;;;2.30;99.90;;;;;;4895219;28;20242;-80
2022/11/20 10:20:36;;;;;;;4.13;3.57;;;2.30;99.90;;;;;;4896978;28;20235;-79
2022/11/20 10:23:22;;;;;;;4.97;3.70;;;2.30;99.90;;;;;;4894607;28;20323;-78
2022/11/20 10:25:57;;;;;;;3.90;3.50;;;2.30;99.90;;;;;;4929230;28;20645;-80
2022/11/20 10:28:38;;;;;;;4.73;3.77;;;2.30;99.90;;;;;;4901160;28;20320;-79
2022/11/20 10:31:10;;;;;;;4.37;3.77;;;2.30;99.90;;;;;;4901760;28;20911;-79
2022/11/20 10:33:41;;;;;;;4.23;3.83;;;2.40;99.90;;;;;;4898221;28;20698;-79
2022/11/20 10:36:17;;;;;;;3.70;3.40;;;2.40;99.90;;;;;;4899589;28;20226;-79
2022/11/20 10:38:49;;;;;;;5.00;3.80;;;2.40;99.90;;;;;;4900596;28;20232;-79
2022/11/20 10:41:27;;;;;;;3.70;3.40;;;2.50;99.90;;;;;;4906558;28;20260;-79
2022/11/20 10:44:02;;;;;;;4.80;3.50;;;2.50;99.90;;;;;;4903251;28;20696;-79
2022/11/20 10:46:37;;;;;;;3.60;3.27;;;2.60;99.90;;;;;;4898586;28;20236;-79
2022/11/20 10:49:11;;;;;;;3.57;2.97;;;2.60;99.90;;;;;;4899760;28;20790;-80
2022/11/20 10:51:53;;;;;;;3.77;3.00;;;2.60;99.90;;;;;;4904368;28;20764;-79
2022/11/20 10:54:28;;;;;;;3.30;2.90;;;2.60;99.90;;;;;;4901733;28;20235;-79
2022/11/20 10:57:01;;;;;;;4.27;3.20;;;2.60;99.90;;;;;;4915085;28;20223;-80
2022/11/20 10:59:47;;;;;;;4.00;3.10;;;2.60;99.90;;;;;;4902025;28;20233;-79
2022/11/20 11:02:19;;;;;;;4.03;3.40;;;2.60;99.90;;;;;;4901362;28;20233;-79
2022/11/20 11:04:47;;;;;;;4.73;3.50;;;2.60;99.90;;;;;;4901057;28;20790;-79
2022/11/20 11:07:21;;;;;;;3.50;3.20;;;2.60;99.90;;;;;;4945424;28;20336;-79
2022/11/20 11:09:50;;;;;;;4.07;3.67;;;2.60;99.90;;;;;;4900712;28;20221;-79
2022/11/20 11:12:17;;;;;;;3.50;3.20;;;2.60;99.90;;;;;;4895849;28;20228;-79
2022/11/20 11:14:49;;;;;;;3.50;3.20;;;2.60;99.90;;;;;;4898522;28;20370;-85
2022/11/20 11:17:26;;;;;;;4.50;4.07;;;2.60;99.90;;;;;;4901947;28;20754;-81
2022/11/20 11:20:06;;;;;;;4.53;3.13;;;2.60;99.90;;;;;;4904733;28;20217;-80
2022/11/20 11:22:35;;;;;;;4.40;4.00;;;2.60;99.90;;;;;;4935399;28;20224;-79
2022/11/20 11:25:02;;;;;;;5.53;3.60;;;2.60;99.90;;;;;;4901673;28;20237;-85
2022/11/20 11:27:29;;;;;;;4.93;3.50;;;2.60;99.90;;;;;;4940640;28;20239;-79
2022/11/20 11:30:13;;;;;;;4.80;3.23;;;2.70;99.90;;;;;;4902547;28;20768;-82
2022/11/20 11:32:39;;;;;;;3.27;2.97;;;2.80;99.90;;;;;;4900994;28;20598;-82
2022/11/20 11:35:21;;;;;;;4.07;3.60;;;2.90;99.90;;;;;;4900673;28;20697;-80
2022/11/20 11:37:50;;;;;;;4.20;2.67;;;3.00;99.90;;;;;;4902630;28;20224;-79
2022/11/20 11:40:19;;;;;;;2.90;2.60;;;3.10;99.90;;;;;;4901885;28;20588;-82
2022/11/20 11:42:52;;;;;;;3.20;2.70;;;3.10;99.90;;;;;;4902249;28;20272;-80
2022/11/20 11:45:18;;;;;;;3.97;2.80;;;3.10;99.90;;;;;;4901909;28;20224;-81
2022/11/20 11:47:48;;;;;;;4.23;3.10;;;3.10;99.90;;;;;;4920642;28;20210;-83
2022/11/20 11:50:17;;;;;;;3.63;2.77;;;3.10;99.90;;;;;;4906348;28;20229;-83
2022/11/20 11:52:51;;;;;;;3.30;2.70;;;3.00;99.90;;;;;;4896380;28;20620;-85
2022/11/20 11:55:31;;;;;;;3.97;2.87;;;3.00;99.90;;;;;;4904411;28;20237;-87
2022/11/20 11:58:20;;;;;;;3.20;2.90;;;2.90;99.90;;;;;;4904661;28;20693;-85
2022/11/20 12:00:54;;;;;;;3.20;2.90;;;3.00;99.90;;;;;;4902521;28;20231;-81
2022/11/20 12:03:25;;;;;;;3.00;2.70;;;3.00;99.90;;;;;;4905102;28;20228;-83
2022/11/20 12:05:58;;;;;;;3.03;2.73;;;3.00;99.90;;;;;;4902391;28;20237;-82
2022/11/20 12:08:32;;;;;;;3.00;2.60;;;3.00;99.90;;;;;;4902735;28;20402;-84
2022/11/20 12:11:04;;;;;;;2.70;2.50;;;3.00;99.90;;;;;;4925138;28;20251;-86
2022/11/20 12:13:47;;;;;;;2.40;2.00;;;3.00;99.90;;;;;;4902563;28;20249;-88
2022/11/20 12:16:19;;;;;;;2.37;2.17;;;3.00;99.90;;;;;;4917456;28;20225;-82
2022/11/20 12:18:49;;;;;;;2.00;1.80;;;3.00;99.90;;;;;;4910771;28;20238;-80
2022/11/20 12:21:21;;;;;;;2.80;2.10;;;2.90;99.90;;;;;;4925828;28;20233;-87
2022/11/20 12:24:11;;;;;;;2.40;2.20;;;2.90;99.90;;;;;;4903855;28;20706;-82
2022/11/20 12:26:50;;;;;;;2.30;2.10;;;3.00;99.90;;;;;;4901891;28;20758;-82
2022/11/20 12:29:27;;;;;;;3.10;2.80;;;2.90;99.90;;;;;;4973842;28;20233;-80
2022/11/20 12:32:07;;;;;;;4.20;2.50;;;2.90;99.90;;;;;;4906868;28;20739;-83
2022/11/20 12:34:45;;;;;;;3.10;2.80;;;3.00;99.90;;;;;;4916844;28;20255;-84
2022/11/20 12:37:24;;;;;;;2.90;2.57;;;3.00;99.90;;;;;;4906868;28;20221;-83
2022/11/20 12:39:56;;;;;;;2.97;2.70;;;3.00;99.90;;;;;;4924767;28;20230;-80
2022/11/20 12:45:46;;;;;;;2.80;2.40;;;3.00;99.90;;;;;;4902173;28;20228;-84
2022/11/20 12:48:29;;;;;;;2.60;2.30;;;3.00;99.90;;;;;;4920279;28;20299;-79
2022/11/20 12:51:14;;;;;;;3.20;2.70;;;3.00;99.90;;;;;;4927335;28;20262;-83
2022/11/20 12:53:50;;;;;;;3.40;3.10;;;3.00;99.90;;;;;;4949826;28;20585;-82
2022/11/20 12:56:28;;;;;;;2.80;2.47;;;3.00;99.90;;;;;;4918266;28;20241;-88
2022/11/20 12:59:08;;;;;;;2.70;2.50;;;2.90;99.90;;;;;;4922723;28;20231;-86
2022/11/20 13:01:43;;;;;;;4.00;3.07;;;2.90;99.90;;;;;;4948551;28;20689;-81
2022/11/20 13:04:29;;;;;;;3.40;2.77;;;3.00;99.90;;;;;;4911906;28;20293;-79
2022/11/20 13:06:58;;;;;;;3.40;2.83;;;3.10;99.90;;;;;;4912554;28;20222;-85
2022/11/20 13:09:26;;;;;;;2.70;2.43;;;3.10;99.90;;;;;;4918784;28;20239;-80
2022/11/20 13:12:05;;;;;;;2.70;2.10;;;3.10;99.90;;;;;;4935927;28;20320;-80
2022/11/20 13:14:38;;;;;;;3.30;2.20;;;3.20;99.90;;;;;;4947845;28;20278;-86
2022/11/20 13:17:11;;;;;;;2.67;2.07;;;3.20;99.90;;;;;;4905421;28;20229;-80
2022/11/20 13:19:38;;;;;;;3.13;2.30;;;3.30;99.90;;;;;;4973675;28;20229;-81
2022/11/20 13:22:05;;;;;;;2.53;2.10;;;3.40;99.90;;;;;;4925141;28;20304;-80